createdAt,value
2017-07-26T00:02:19.095Z,99.90
2017-07-26T00:04:46.675Z,99.90
2017-07-26T00:07:14.188Z,99.90
2017-07-26T00:09:41.716Z,99.90
2017-07-26T00:12:16.280Z,99.90
2017-07-26T00:14:43.791Z,99.90
2017-07-26T00:17:11.318Z,99.90
2017-07-26T00:19:39.208Z,99.90
2017-07-26T00:22:06.732Z,99.90
2017-07-26T00:24:34.241Z,99.90
2017-07-26T00:27:01.886Z,99.90
2017-07-26T00:29:30.072Z,99.90
2017-07-26T00:31:57.593Z,99.90
2017-07-26T00:34:25.216Z,99.90
2017-07-26T00:36:52.760Z,99.90
2017-07-26T00:39:20.315Z,99.90
2017-07-26T00:41:47.863Z,99.90
2017-07-26T00:44:15.380Z,99.90
2017-07-26T00:46:42.875Z,99.90
2017-07-26T00:49:10.979Z,99.90
2017-07-26T00:51:38.479Z,99.90
2017-07-26T00:54:05.996Z,99.90
2017-07-26T00:56:33.564Z,99.90
2017-07-26T00:59:01.224Z,99.90
2017-07-26T01:01:28.727Z,99.90
2017-07-26T01:03:56.307Z,99.90
2017-07-26T01:06:23.815Z,99.90
2017-07-26T01:08:51.783Z,99.90
2017-07-26T01:11:20.154Z,99.90
2017-07-26T01:13:47.666Z,99.90
2017-07-26T01:16:15.171Z,99.90
2017-07-26T01:18:42.963Z,99.90
2017-07-26T01:21:10.491Z,99.90
2017-07-26T01:23:38.003Z,99.90
2017-07-26T01:26:05.798Z,99.90
2017-07-26T01:28:33.366Z,99.90
2017-07-26T01:31:00.862Z,99.90
2017-07-26T01:33:28.636Z,99.90
2017-07-26T01:35:56.132Z,99.90
2017-07-26T01:38:23.630Z,99.90
2017-07-26T01:40:51.151Z,99.90
2017-07-26T01:43:18.703Z,99.90
2017-07-26T01:45:46.246Z,99.90
2017-07-26T01:48:14.066Z,99.90
2017-07-26T01:50:41.569Z,99.90
2017-07-26T01:53:09.075Z,99.90
2017-07-26T01:55:36.867Z,99.90
2017-07-26T01:58:04.367Z,99.90
2017-07-26T02:00:31.947Z,99.90
2017-07-26T02:02:59.631Z,99.90
2017-07-26T02:05:27.201Z,99.90
2017-07-26T02:07:54.703Z,99.90
2017-07-26T02:10:22.499Z,99.90
2017-07-26T02:12:49.996Z,99.90
2017-07-26T02:15:17.502Z,99.90
2017-07-26T02:17:45.296Z,99.90
2017-07-26T02:20:12.802Z,99.90
2017-07-26T02:22:40.294Z,99.90
2017-07-26T02:25:08.202Z,99.90
2017-07-26T02:27:35.718Z,99.90
2017-07-26T02:30:03.255Z,99.90
2017-07-26T02:32:31.155Z,99.90
2017-07-26T02:34:58.658Z,99.90
2017-07-26T02:37:26.167Z,99.90
2017-07-26T02:39:54.123Z,99.90
2017-07-26T02:42:21.668Z,99.90
2017-07-26T02:44:49.171Z,99.90
2017-07-26T02:47:16.758Z,99.90
2017-07-26T02:49:44.271Z,99.90
2017-07-26T02:52:11.774Z,99.90
2017-07-26T02:54:40.019Z,99.90
2017-07-26T02:57:07.520Z,99.90
2017-07-26T02:59:35.032Z,99.90
2017-07-26T03:02:02.956Z,99.90
2017-07-26T03:04:30.483Z,99.90
2017-07-26T03:06:58.042Z,99.90
2017-07-26T03:09:25.851Z,99.90
2017-07-26T03:11:53.358Z,99.90
2017-07-26T03:14:20.862Z,99.90
2017-07-26T03:16:48.426Z,99.90
2017-07-26T03:19:15.925Z,99.90
2017-07-26T03:21:43.434Z,99.90
2017-07-26T03:24:12.340Z,99.90
2017-07-26T03:28:57.640Z,99.90
2017-07-26T03:31:25.633Z,99.90
2017-07-26T03:33:53.569Z,99.90
2017-07-26T03:36:21.273Z,99.90
2017-07-26T03:38:49.206Z,99.90
2017-07-26T03:41:16.851Z,99.90
2017-07-26T03:43:44.371Z,99.90
2017-07-26T03:46:11.968Z,99.90
2017-07-26T03:48:39.478Z,99.90
2017-07-26T03:51:07.067Z,99.90
2017-07-26T03:53:34.941Z,99.90
2017-07-26T03:56:02.492Z,99.90
2017-07-26T03:58:30.246Z,99.90
2017-07-26T04:00:57.907Z,99.90
2017-07-26T04:03:25.491Z,99.90
2017-07-26T04:05:52.998Z,99.90
2017-07-26T04:08:20.800Z,99.90
2017-07-26T04:10:48.452Z,99.90
2017-07-26T04:13:16.003Z,99.90
2017-07-26T04:15:43.582Z,99.90
2017-07-26T04:18:11.096Z,99.90
2017-07-26T04:20:38.895Z,99.90
2017-07-26T04:23:06.392Z,99.90
2017-07-26T04:25:33.903Z,99.90
2017-07-26T04:28:01.702Z,99.90
2017-07-26T04:30:29.212Z,99.90
2017-07-26T04:32:56.750Z,99.90
2017-07-26T04:35:24.422Z,99.90
2017-07-26T04:37:51.923Z,99.90
2017-07-26T04:40:19.443Z,99.90
2017-07-26T04:42:47.007Z,99.90
2017-07-26T04:45:14.526Z,99.90
2017-07-26T04:47:42.032Z,99.90
2017-07-26T04:50:09.964Z,99.90
2017-07-26T04:52:37.495Z,99.90
2017-07-26T04:55:05.003Z,99.90
2017-07-26T04:57:32.911Z,99.90
2017-07-26T05:00:00.414Z,99.90
2017-07-26T05:02:28.351Z,99.90
2017-07-26T05:04:55.899Z,99.90
2017-07-26T05:07:24.233Z,99.90
2017-07-26T05:09:51.749Z,99.90
2017-07-26T05:12:19.782Z,99.90
2017-07-26T05:14:47.277Z,99.90
2017-07-26T05:17:14.786Z,99.90
2017-07-26T05:19:42.358Z,99.90
2017-07-26T05:22:09.866Z,99.90
2017-07-26T05:24:37.363Z,99.90
2017-07-26T05:27:04.910Z,99.90
2017-07-26T05:29:32.419Z,99.90
2017-07-26T05:32:00.352Z,99.90
2017-07-26T05:34:28.144Z,99.90
2017-07-26T05:36:55.698Z,99.90
2017-07-26T05:39:23.232Z,99.90
2017-07-26T05:41:50.836Z,99.90
2017-07-26T05:44:18.487Z,99.90
2017-07-26T05:46:46.039Z,99.90
2017-07-26T05:49:13.947Z,99.90
2017-07-26T05:51:41.474Z,99.90
2017-07-26T05:54:09.119Z,99.90
2017-07-26T05:56:36.930Z,99.90
2017-07-26T05:59:04.526Z,99.90
2017-07-26T06:01:32.208Z,99.90
2017-07-26T06:03:59.789Z,99.90
2017-07-26T06:06:27.294Z,99.90
2017-07-26T06:08:54.813Z,99.90
2017-07-26T06:11:22.369Z,99.90
2017-07-26T06:13:49.915Z,99.90
2017-07-26T06:16:17.456Z,99.90
2017-07-26T06:18:45.078Z,99.90
2017-07-26T06:21:12.591Z,99.90
2017-07-26T06:23:40.490Z,99.90
2017-07-26T06:26:07.999Z,99.90
2017-07-26T06:28:35.515Z,99.90
2017-07-26T06:31:03.315Z,99.90
2017-07-26T06:33:30.835Z,99.90
2017-07-26T06:35:58.355Z,99.90
2017-07-26T06:38:25.914Z,99.90
2017-07-26T06:40:53.446Z,99.90
2017-07-26T06:43:21.086Z,99.90
2017-07-26T06:45:48.650Z,99.90
2017-07-26T06:48:16.176Z,99.90
2017-07-26T06:50:43.686Z,99.90
2017-07-26T06:53:11.507Z,99.90
2017-07-26T06:55:39.214Z,99.90
2017-07-26T06:58:06.783Z,99.90
2017-07-26T07:00:35.498Z,99.90
2017-07-26T07:03:03.083Z,99.90
2017-07-26T07:05:30.591Z,99.90
2017-07-26T07:07:58.474Z,99.90
2017-07-26T07:10:25.984Z,99.90
2017-07-26T07:12:53.505Z,99.90
2017-07-26T07:15:21.036Z,99.90
2017-07-26T07:17:48.553Z,99.90
2017-07-26T07:20:16.103Z,99.90
2017-07-26T07:22:43.654Z,99.90
2017-07-26T07:25:11.172Z,99.90
2017-07-26T07:27:38.693Z,99.90
2017-07-26T07:30:06.664Z,99.90
2017-07-26T07:32:34.582Z,99.90
2017-07-26T07:35:02.189Z,99.90
2017-07-26T07:37:29.707Z,99.90
2017-07-26T07:39:57.275Z,99.90
2017-07-26T07:42:24.791Z,99.90
2017-07-26T07:44:52.320Z,99.90
2017-07-26T07:47:19.886Z,99.90
2017-07-26T07:49:47.392Z,99.90
2017-07-26T07:52:14.907Z,99.90
2017-07-26T07:54:42.704Z,99.90
2017-07-26T07:57:10.220Z,99.90
2017-07-26T07:59:37.736Z,99.90
2017-07-26T08:02:05.518Z,99.90
2017-07-26T08:04:33.023Z,99.90
2017-07-26T08:07:00.541Z,99.90
2017-07-26T08:09:28.123Z,99.90
2017-07-26T08:11:55.651Z,99.90
2017-07-26T08:14:23.164Z,99.90
2017-07-26T08:16:50.724Z,99.90
2017-07-26T08:19:18.242Z,99.90
2017-07-26T08:21:45.762Z,99.90
2017-07-26T08:24:13.356Z,99.90
2017-07-26T08:26:40.864Z,99.90
2017-07-26T08:29:08.366Z,99.90
2017-07-26T08:31:36.219Z,99.90
2017-07-26T08:34:03.778Z,99.90
2017-07-26T08:36:31.282Z,99.90
2017-07-26T08:38:58.838Z,99.90
2017-07-26T08:41:26.356Z,99.90
2017-07-26T08:43:53.876Z,99.90
2017-07-26T08:46:21.806Z,99.90
2017-07-26T08:48:49.347Z,99.90
2017-07-26T08:51:16.854Z,99.90
2017-07-26T08:53:44.407Z,99.90
2017-07-26T08:56:11.930Z,99.90
2017-07-26T08:58:39.446Z,99.90
2017-07-26T09:01:07.365Z,99.90
2017-07-26T09:03:34.890Z,99.90
2017-07-26T09:06:02.400Z,99.90
2017-07-26T09:08:29.950Z,99.90
2017-07-26T09:10:57.482Z,99.90
2017-07-26T09:13:25.012Z,99.90
2017-07-26T09:15:52.582Z,99.90
2017-07-26T09:18:20.123Z,99.90
2017-07-26T09:20:47.698Z,99.90
2017-07-26T09:23:15.255Z,99.90
2017-07-26T09:25:42.783Z,99.90
2017-07-26T09:28:10.300Z,99.90
2017-07-26T09:30:38.117Z,99.90
2017-07-26T09:33:06.023Z,99.90
2017-07-26T09:35:33.538Z,99.90
2017-07-26T09:38:01.086Z,99.90
2017-07-26T09:40:28.602Z,99.90
2017-07-26T09:42:56.102Z,99.90
2017-07-26T09:47:57.943Z,99.90
2017-07-26T09:50:25.726Z,99.90
2017-07-26T09:52:53.251Z,99.90
2017-07-26T09:55:20.771Z,99.90
2017-07-26T09:57:48.360Z,99.90
2017-07-26T10:00:15.887Z,99.90
2017-07-26T10:02:43.387Z,99.90
2017-07-26T10:05:10.944Z,99.90
2017-07-26T10:07:38.450Z,99.90
2017-07-26T10:10:05.976Z,99.90
2017-07-26T10:12:33.553Z,99.90
2017-07-26T10:15:01.111Z,99.90
2017-07-26T10:17:28.620Z,99.90
2017-07-26T10:19:56.180Z,99.90
2017-07-26T10:22:23.682Z,99.90
2017-07-26T10:24:52.811Z,99.90
2017-07-26T10:27:20.371Z,99.90
2017-07-26T10:29:47.875Z,99.90
2017-07-26T10:32:15.449Z,99.90
2017-07-26T10:34:43.356Z,99.90
2017-07-26T10:37:10.884Z,99.90
2017-07-26T10:39:38.397Z,99.90
2017-07-26T10:42:06.279Z,99.90
2017-07-26T10:44:34.448Z,99.90
2017-07-26T10:47:01.974Z,99.90
2017-07-26T10:49:29.535Z,99.90
2017-07-26T10:51:57.051Z,99.90
2017-07-26T10:54:24.577Z,99.90
2017-07-26T10:56:52.136Z,99.90
2017-07-26T10:59:19.641Z,99.90
2017-07-26T11:01:47.151Z,99.90
2017-07-26T11:04:14.939Z,99.90
2017-07-26T11:06:42.928Z,99.90
2017-07-26T11:09:10.456Z,99.90
2017-07-26T11:11:37.963Z,99.90
2017-07-26T11:14:05.858Z,99.90
2017-07-26T11:16:33.363Z,99.90
2017-07-26T11:19:00.905Z,99.90
2017-07-26T11:21:29.371Z,99.90
2017-07-26T11:23:56.895Z,99.90
2017-07-26T11:26:24.412Z,99.90
2017-07-26T11:28:51.979Z,99.90
2017-07-26T11:31:19.486Z,99.90
2017-07-26T11:33:46.995Z,99.90
2017-07-26T11:36:14.796Z,99.90
2017-07-26T11:38:42.306Z,99.90
2017-07-26T11:41:09.811Z,99.90
2017-07-26T11:43:37.357Z,99.90
2017-07-26T11:46:04.871Z,99.90
2017-07-26T11:48:32.382Z,99.90
2017-07-26T11:50:59.989Z,99.90
2017-07-26T11:53:27.500Z,99.90
2017-07-26T11:55:54.999Z,99.90
2017-07-26T11:58:22.881Z,99.90
2017-07-26T12:00:50.399Z,99.90
2017-07-26T12:03:17.922Z,99.90
2017-07-26T12:05:45.466Z,99.90
2017-07-26T12:08:12.967Z,99.90
2017-07-26T12:10:40.471Z,99.90
2017-07-26T12:13:08.322Z,99.90
2017-07-26T12:15:35.823Z,99.90
2017-07-26T12:18:03.370Z,99.90
2017-07-26T12:20:31.168Z,99.90
2017-07-26T12:22:58.673Z,99.90
2017-07-26T12:25:26.204Z,99.90
2017-07-26T12:27:54.386Z,99.90
2017-07-26T12:30:21.889Z,99.90
2017-07-26T12:32:49.401Z,99.90
2017-07-26T12:35:17.118Z,99.90
2017-07-26T12:37:44.668Z,99.90
2017-07-26T12:40:12.186Z,99.90
2017-07-26T12:42:39.752Z,99.90
2017-07-26T12:45:07.532Z,99.90
2017-07-26T12:47:35.051Z,99.90
2017-07-26T12:50:02.579Z,99.90
2017-07-26T12:52:30.415Z,99.90
2017-07-26T12:54:57.931Z,99.90
2017-07-26T12:57:25.431Z,99.90
2017-07-26T12:59:52.975Z,99.90
2017-07-26T13:02:20.480Z,99.90
2017-07-26T13:04:48.008Z,99.10
2017-07-26T13:07:16.007Z,99.10
2017-07-26T13:09:43.518Z,99.90
2017-07-26T13:12:11.045Z,99.80
2017-07-26T13:14:38.615Z,99.90
2017-07-26T13:17:06.127Z,99.90
2017-07-26T13:19:33.842Z,99.30
2017-07-26T13:22:01.671Z,99.80
2017-07-26T13:24:29.189Z,99.90
2017-07-26T13:26:56.703Z,99.70
2017-07-26T13:29:24.255Z,99.20
2017-07-26T13:31:51.780Z,99.70
2017-07-26T13:34:19.306Z,99.90
2017-07-26T13:36:46.887Z,99.90
2017-07-26T13:39:15.807Z,99.90
2017-07-26T13:41:43.337Z,99.90
2017-07-26T13:44:11.129Z,99.90
2017-07-26T13:46:38.643Z,99.80
2017-07-26T13:49:06.154Z,99.90
2017-07-26T13:51:33.726Z,98.70
2017-07-26T13:54:01.234Z,98.20
2017-07-26T13:56:28.734Z,98.30
2017-07-26T13:58:56.640Z,97.70
2017-07-26T14:01:24.165Z,97.90
2017-07-26T14:03:51.667Z,97.80
2017-07-26T14:06:19.494Z,98.00
2017-07-26T14:08:47.015Z,98.30
2017-07-26T14:11:14.518Z,97.30
2017-07-26T14:13:42.090Z,97.50
2017-07-26T14:16:09.601Z,97.40
2017-07-26T14:18:37.109Z,97.40
2017-07-26T14:21:04.680Z,96.90
2017-07-26T14:23:32.197Z,97.00
2017-07-26T14:25:59.720Z,96.90
2017-07-26T14:28:27.643Z,97.40
2017-07-26T14:30:55.731Z,97.00
2017-07-26T14:33:23.271Z,97.30
2017-07-26T14:35:51.210Z,95.50
2017-07-26T14:38:18.950Z,96.80
2017-07-26T14:40:46.534Z,95.70
2017-07-26T14:43:14.081Z,95.00
2017-07-26T14:45:41.586Z,95.60
2017-07-26T14:48:09.106Z,95.90
2017-07-26T14:50:36.707Z,95.80
2017-07-26T14:53:04.215Z,94.70
2017-07-26T14:55:31.719Z,94.70
2017-07-26T14:57:59.279Z,94.20
2017-07-26T15:00:26.792Z,93.20
2017-07-26T15:02:54.301Z,92.50
2017-07-26T15:05:22.139Z,91.80
2017-07-26T15:07:50.067Z,90.90
2017-07-26T15:10:17.631Z,88.30
2017-07-26T15:12:45.182Z,89.60
2017-07-26T15:15:12.713Z,85.40
2017-07-26T15:17:40.231Z,83.30
2017-07-26T15:20:07.919Z,81.80
2017-07-26T15:22:35.490Z,81.80
2017-07-26T15:25:03.063Z,79.50
2017-07-26T15:27:30.631Z,80.80
2017-07-26T15:29:58.139Z,80.90
2017-07-26T15:32:25.738Z,83.70
2017-07-26T15:34:53.443Z,83.50
2017-07-26T15:37:20.966Z,85.00
2017-07-26T15:39:48.519Z,85.00
2017-07-26T15:42:16.024Z,86.30
2017-07-26T15:44:43.686Z,86.60
2017-07-26T15:47:11.271Z,84.40
2017-07-26T15:49:38.803Z,84.30
2017-07-26T15:52:06.430Z,84.40
2017-07-26T15:54:34.327Z,82.80
2017-07-26T15:57:01.831Z,82.10
2017-07-26T15:59:29.363Z,81.50
2017-07-26T16:01:56.931Z,78.40
2017-07-26T16:04:24.664Z,78.30
2017-07-26T16:06:52.455Z,78.30
2017-07-26T16:09:20.006Z,79.50
2017-07-26T16:11:47.522Z,78.00
2017-07-26T16:14:15.628Z,78.30
2017-07-26T16:16:43.518Z,77.40
2017-07-26T16:19:11.024Z,77.40
2017-07-26T16:21:38.539Z,79.00
2017-07-26T16:24:06.425Z,77.20
2017-07-26T16:26:33.934Z,78.00
2017-07-26T16:29:01.966Z,77.80
2017-07-26T16:31:29.980Z,76.80
2017-07-26T16:33:57.514Z,76.70
2017-07-26T16:36:25.181Z,76.10
2017-07-26T16:38:52.687Z,76.90
2017-07-26T16:41:20.188Z,75.30
2017-07-26T16:43:48.039Z,75.20
2017-07-26T16:46:15.563Z,77.90
2017-07-26T16:48:43.279Z,79.30
2017-07-26T16:51:10.879Z,80.30
2017-07-26T16:53:38.388Z,82.20
2017-07-26T16:56:05.896Z,82.30
2017-07-26T16:58:33.439Z,80.30
2017-07-26T17:01:01.039Z,80.30
2017-07-26T17:03:28.546Z,80.90
2017-07-26T17:05:56.103Z,80.20
2017-07-26T17:08:23.604Z,76.30
2017-07-26T17:10:51.643Z,77.90
2017-07-26T17:13:19.542Z,78.30
2017-07-26T17:15:47.044Z,77.70
2017-07-26T17:18:14.555Z,77.00
2017-07-26T17:20:42.349Z,78.70
2017-07-26T17:23:10.121Z,77.00
2017-07-26T17:25:37.631Z,77.40
2017-07-26T17:28:05.188Z,77.40
2017-07-26T17:30:32.961Z,75.10
2017-07-26T17:33:00.474Z,76.00
2017-07-26T17:35:28.078Z,73.40
2017-07-26T17:37:55.671Z,73.50
2017-07-26T17:40:23.219Z,75.00
2017-07-26T17:42:51.193Z,74.80
2017-07-26T17:45:18.738Z,74.90
2017-07-26T17:47:46.340Z,75.50
2017-07-26T17:50:14.125Z,76.90
2017-07-26T17:52:41.716Z,76.90
2017-07-26T17:55:09.239Z,77.20
2017-07-26T17:57:37.103Z,77.50
2017-07-26T18:00:04.654Z,77.70
2017-07-26T18:02:32.154Z,78.30
2017-07-26T18:04:59.951Z,78.80
2017-07-26T18:07:27.468Z,77.50
2017-07-26T18:09:55.268Z,78.20
2017-07-26T18:12:22.882Z,78.00
2017-07-26T18:14:50.438Z,78.30
2017-07-26T18:17:17.986Z,77.20
2017-07-26T18:19:45.797Z,77.80
2017-07-26T18:22:13.815Z,77.70
2017-07-26T18:24:41.568Z,77.90
2017-07-26T18:27:09.138Z,78.80
2017-07-26T18:29:36.839Z,79.40
2017-07-26T18:32:04.668Z,80.40
2017-07-26T18:34:32.211Z,80.50
2017-07-26T18:36:59.734Z,81.60
2017-07-26T18:39:27.650Z,83.60
2017-07-26T18:41:55.159Z,83.80
2017-07-26T18:44:22.791Z,84.20
2017-07-26T18:46:50.363Z,84.90
2017-07-26T18:49:17.892Z,87.00
2017-07-26T18:51:45.574Z,87.00
2017-07-26T18:54:13.490Z,88.30
2017-07-26T18:56:41.054Z,89.30
2017-07-26T18:59:08.559Z,89.80
2017-07-26T19:01:36.876Z,90.20
2017-07-26T19:04:04.500Z,90.50
2017-07-26T19:06:32.020Z,90.60
2017-07-26T19:08:59.644Z,90.60
2017-07-26T19:11:28.501Z,91.10
2017-07-26T19:13:56.472Z,91.30
2017-07-26T19:16:24.002Z,91.70
2017-07-26T19:18:51.710Z,91.90
2017-07-26T19:21:19.275Z,92.20
2017-07-26T19:23:46.829Z,92.50
2017-07-26T19:26:14.479Z,92.70
2017-07-26T19:28:42.047Z,93.10
2017-07-26T19:31:09.584Z,92.80
2017-07-26T19:33:37.336Z,92.90
2017-07-26T19:36:04.930Z,93.20
2017-07-26T19:38:32.448Z,92.70
2017-07-26T19:40:59.979Z,92.60
2017-07-26T19:43:27.566Z,93.10
2017-07-26T19:45:55.079Z,93.10
2017-07-26T19:48:22.659Z,93.30
2017-07-26T19:50:50.456Z,93.60
2017-07-26T19:53:17.955Z,93.60
2017-07-26T19:55:45.610Z,93.60
2017-07-26T19:58:13.179Z,93.50
2017-07-26T20:00:40.687Z,93.80
2017-07-26T20:03:08.233Z,93.70
2017-07-26T20:05:35.853Z,93.60
2017-07-26T20:08:03.354Z,93.90
2017-07-26T20:10:31.148Z,93.90
2017-07-26T20:12:58.698Z,94.20
2017-07-26T20:15:26.195Z,94.30
2017-07-26T20:17:53.723Z,94.90
2017-07-26T20:20:21.616Z,95.10
2017-07-26T20:22:49.116Z,95.60
2017-07-26T20:25:16.615Z,95.50
2017-07-26T20:27:44.443Z,95.80
2017-07-26T20:30:12.036Z,96.40
2017-07-26T20:32:39.922Z,96.40
2017-07-26T20:35:07.479Z,96.60
2017-07-26T20:37:34.994Z,96.90
2017-07-26T20:40:02.510Z,96.90
2017-07-26T20:42:30.449Z,97.10
2017-07-26T20:44:57.955Z,97.20
2017-07-26T20:47:25.519Z,97.50
2017-07-26T20:49:53.110Z,97.90
2017-07-26T20:52:21.235Z,98.20
2017-07-26T20:54:48.818Z,98.60
2017-07-26T20:57:16.942Z,99.00
2017-07-26T20:59:44.658Z,99.30
2017-07-26T21:02:12.205Z,99.60
2017-07-26T21:04:39.838Z,99.90
2017-07-26T21:07:07.426Z,99.90
2017-07-26T21:09:34.953Z,99.90
2017-07-26T21:12:02.539Z,99.90
2017-07-26T21:14:30.063Z,99.90
2017-07-26T21:16:57.602Z,99.90
2017-07-26T21:19:25.157Z,99.90
2017-07-26T21:21:52.754Z,99.90
2017-07-26T21:24:20.292Z,99.90
2017-07-26T21:26:47.886Z,99.90
2017-07-26T21:29:15.428Z,99.90
2017-07-26T21:31:43.006Z,99.90
2017-07-26T21:34:10.559Z,99.90
2017-07-26T21:36:38.066Z,99.90
2017-07-26T21:39:05.570Z,99.90
2017-07-26T21:41:33.437Z,99.90
2017-07-26T21:44:00.991Z,99.90
2017-07-26T21:46:28.490Z,99.90
2017-07-26T21:48:56.494Z,99.90
2017-07-26T21:51:23.994Z,99.90
2017-07-26T21:53:51.502Z,99.90
2017-07-26T21:56:19.394Z,99.90
2017-07-26T21:58:46.918Z,99.90
2017-07-26T22:01:14.538Z,99.90
2017-07-26T22:03:42.134Z,99.90
2017-07-26T22:06:09.643Z,99.90
2017-07-26T22:08:37.148Z,99.90
2017-07-26T22:11:04.858Z,99.90
2017-07-26T22:13:32.358Z,99.90
2017-07-26T22:15:59.875Z,99.90
2017-07-26T22:18:27.202Z,99.90
2017-07-26T22:20:55.424Z,99.90
2017-07-26T22:23:22.935Z,99.90
2017-07-26T22:25:50.567Z,99.90
2017-07-26T22:28:18.119Z,99.90
2017-07-26T22:30:45.779Z,99.90
2017-07-26T22:33:13.610Z,99.90
2017-07-26T22:35:41.178Z,99.90
2017-07-26T22:38:08.707Z,99.90
2017-07-26T22:40:36.528Z,99.90
2017-07-26T22:43:04.045Z,99.90
2017-07-26T22:45:31.559Z,99.90
2017-07-26T22:47:59.551Z,99.90
2017-07-26T22:50:27.066Z,99.90
2017-07-26T22:52:54.578Z,99.90
2017-07-26T22:55:22.172Z,99.90
2017-07-26T22:57:49.785Z,99.90
2017-07-26T23:00:17.305Z,99.90
2017-07-26T23:02:44.871Z,99.90
2017-07-26T23:05:12.541Z,99.90
2017-07-26T23:07:40.055Z,99.90
2017-07-26T23:10:08.029Z,99.90
2017-07-26T23:12:35.725Z,99.90
2017-07-26T23:15:03.315Z,99.90
2017-07-26T23:17:30.891Z,99.90
2017-07-26T23:19:58.582Z,99.90
2017-07-26T23:22:26.093Z,99.90
2017-07-26T23:24:53.829Z,99.90
2017-07-26T23:27:21.327Z,99.90
2017-07-26T23:29:48.838Z,99.90
2017-07-26T23:32:16.739Z,99.90
2017-07-26T23:34:44.267Z,99.90
2017-07-26T23:37:11.784Z,99.90
2017-07-26T23:39:39.615Z,99.90
2017-07-26T23:42:07.177Z,99.90
2017-07-26T23:44:34.726Z,99.90
2017-07-26T23:47:02.618Z,99.90
2017-07-26T23:49:30.130Z,99.90
2017-07-26T23:51:57.635Z,99.90
2017-07-26T23:54:25.214Z,99.90
2017-07-26T23:56:52.719Z,99.90
2017-07-26T23:59:20.274Z,99.90
